sensor_id;sensor_type;location;lat;lon;timestamp;P1;durP1;ratioP1;P2;durP2;ratioP2
16516;SDS011;8371;52.272;9.746;2022-12-18T00:01:35;3.83;;;3.63;;
16516;SDS011;8371;52.272;9.746;2022-12-18T00:04:03;2.87;;;2.77;;
16516;SDS011;8371;52.272;9.746;2022-12-18T00:06:30;3.30;;;3.10;;
16516;SDS011;8371;52.272;9.746;2022-12-18T00:08:58;3.23;;;3.13;;
16516;SDS011;8371;52.272;9.746;2022-12-18T00:11:26;2.70;;;2.60;;
16516;SDS011;8371;52.272;9.746;2022-12-18T00:13:54;3.20;;;3.07;;
16516;SDS011;8371;52.272;9.746;2022-12-18T00:16:22;3.20;;;3.00;;
16516;SDS011;8371;52.272;9.746;2022-12-18T00:18:50;3.40;;;3.20;;
16516;SDS011;8371;52.272;9.746;2022-12-18T00:21:18;3.43;;;3.17;;
16516;SDS011;8371;52.272;9.746;2022-12-18T00:23:46;3.30;;;3.20;;
16516;SDS011;8371;52.272;9.746;2022-12-18T00:26:14;3.20;;;3.10;;
16516;SDS011;8371;52.272;9.746;2022-12-18T00:28:48;3.10;;;3.00;;
16516;SDS011;8371;52.272;9.746;2022-12-18T00:31:16;3.37;;;3.17;;
16516;SDS011;8371;52.272;9.746;2022-12-18T00:33:43;3.07;;;2.87;;
16516;SDS011;8371;52.272;9.746;2022-12-18T00:36:10;3.57;;;3.47;;
16516;SDS011;8371;52.272;9.746;2022-12-18T00:38:38;3.73;;;3.53;;
16516;SDS011;8371;52.272;9.746;2022-12-18T00:41:05;3.23;;;2.93;;
16516;SDS011;8371;52.272;9.746;2022-12-18T00:43:31;3.50;;;3.30;;
16516;SDS011;8371;52.272;9.746;2022-12-18T00:45:58;2.90;;;2.80;;
16516;SDS011;8371;52.272;9.746;2022-12-18T00:48:24;2.60;;;2.50;;
16516;SDS011;8371;52.272;9.746;2022-12-18T00:50:50;3.30;;;3.10;;
16516;SDS011;8371;52.272;9.746;2022-12-18T00:53:16;3.03;;;2.93;;
16516;SDS011;8371;52.272;9.746;2022-12-18T00:55:43;3.00;;;2.80;;
16516;SDS011;8371;52.272;9.746;2022-12-18T00:58:09;3.27;;;3.07;;
16516;SDS011;8371;52.272;9.746;2022-12-18T01:00:36;3.43;;;3.13;;
16516;SDS011;8371;52.272;9.746;2022-12-18T01:03:03;3.70;;;3.50;;
16516;SDS011;8371;52.272;9.746;2022-12-18T01:05:29;3.43;;;3.33;;
16516;SDS011;8371;52.272;9.746;2022-12-18T01:07:55;2.47;;;2.37;;
16516;SDS011;8371;52.272;9.746;2022-12-18T01:10:22;2.90;;;2.70;;
16516;SDS011;8371;52.272;9.746;2022-12-18T01:12:48;3.10;;;2.90;;
16516;SDS011;8371;52.272;9.746;2022-12-18T01:15:14;3.10;;;3.00;;
16516;SDS011;8371;52.272;9.746;2022-12-18T01:17:41;2.77;;;2.67;;
16516;SDS011;8371;52.272;9.746;2022-12-18T01:20:07;3.33;;;3.13;;
16516;SDS011;8371;52.272;9.746;2022-12-18T01:22:35;3.23;;;3.03;;
16516;SDS011;8371;52.272;9.746;2022-12-18T01:25:04;2.53;;;2.43;;
16516;SDS011;8371;52.272;9.746;2022-12-18T01:27:30;3.00;;;2.80;;
16516;SDS011;8371;52.272;9.746;2022-12-18T01:29:56;2.97;;;2.77;;
16516;SDS011;8371;52.272;9.746;2022-12-18T01:32:22;2.70;;;2.60;;
16516;SDS011;8371;52.272;9.746;2022-12-18T01:34:47;2.60;;;2.50;;
16516;SDS011;8371;52.272;9.746;2022-12-18T01:37:13;3.20;;;3.00;;
16516;SDS011;8371;52.272;9.746;2022-12-18T01:39:39;3.00;;;2.90;;
16516;SDS011;8371;52.272;9.746;2022-12-18T01:42:12;3.30;;;3.20;;
16516;SDS011;8371;52.272;9.746;2022-12-18T01:44:54;2.67;;;2.50;;
16516;SDS011;8371;52.272;9.746;2022-12-18T01:47:32;2.67;;;2.53;;
16516;SDS011;8371;52.272;9.746;2022-12-18T01:50:09;2.70;;;2.60;;
16516;SDS011;8371;52.272;9.746;2022-12-18T01:52:37;3.30;;;3.10;;
16516;SDS011;8371;52.272;9.746;2022-12-18T01:55:04;3.40;;;3.20;;
16516;SDS011;8371;52.272;9.746;2022-12-18T01:57:31;2.90;;;2.70;;
16516;SDS011;8371;52.272;9.746;2022-12-18T02:00:04;3.13;;;3.00;;
16516;SDS011;8371;52.272;9.746;2022-12-18T02:02:31;2.43;;;2.33;;
16516;SDS011;8371;52.272;9.746;2022-12-18T02:04:58;3.37;;;3.17;;
16516;SDS011;8371;52.272;9.746;2022-12-18T02:10:14;2.50;;;2.40;;
16516;SDS011;8371;52.272;9.746;2022-12-18T02:15:44;2.80;;;2.60;;
16516;SDS011;8371;52.272;9.746;2022-12-18T02:18:21;2.60;;;2.20;;
16516;SDS011;8371;52.272;9.746;2022-12-18T02:20:49;2.47;;;2.37;;
16516;SDS011;8371;52.272;9.746;2022-12-18T02:26:14;2.70;;;2.60;;
16516;SDS011;8371;52.272;9.746;2022-12-18T02:28:43;2.23;;;2.13;;
16516;SDS011;8371;52.272;9.746;2022-12-18T02:34:10;2.40;;;2.30;;
16516;SDS011;8371;52.272;9.746;2022-12-18T02:36:38;3.30;;;3.10;;
16516;SDS011;8371;52.272;9.746;2022-12-18T02:39:07;2.53;;;2.43;;
16516;SDS011;8371;52.272;9.746;2022-12-18T02:41:37;2.10;;;2.00;;
16516;SDS011;8371;52.272;9.746;2022-12-18T02:44:08;2.50;;;2.40;;
16516;SDS011;8371;52.272;9.746;2022-12-18T02:46:36;2.47;;;2.37;;
16516;SDS011;8371;52.272;9.746;2022-12-18T02:51:43;2.50;;;2.40;;
16516;SDS011;8371;52.272;9.746;2022-12-18T02:54:20;2.40;;;2.30;;
16516;SDS011;8371;52.272;9.746;2022-12-18T02:56:50;2.37;;;2.27;;
16516;SDS011;8371;52.272;9.746;2022-12-18T02:59:29;2.53;;;2.43;;
16516;SDS011;8371;52.272;9.746;2022-12-18T03:04:53;2.93;;;2.83;;
16516;SDS011;8371;52.272;9.746;2022-12-18T03:07:21;2.60;;;2.40;;
16516;SDS011;8371;52.272;9.746;2022-12-18T03:09:50;2.57;;;2.47;;
16516;SDS011;8371;52.272;9.746;2022-12-18T03:12:21;2.20;;;2.10;;
16516;SDS011;8371;52.272;9.746;2022-12-18T03:17:32;2.60;;;2.50;;
16516;SDS011;8371;52.272;9.746;2022-12-18T03:20:01;2.00;;;1.97;;
16516;SDS011;8371;52.272;9.746;2022-12-18T03:22:32;1.93;;;1.90;;
16516;SDS011;8371;52.272;9.746;2022-12-18T03:25:00;2.40;;;2.30;;
16516;SDS011;8371;52.272;9.746;2022-12-18T03:27:29;2.60;;;2.50;;
16516;SDS011;8371;52.272;9.746;2022-12-18T03:30:03;3.00;;;2.83;;
16516;SDS011;8371;52.272;9.746;2022-12-18T03:35:23;2.50;;;2.40;;
16516;SDS011;8371;52.272;9.746;2022-12-18T03:37:51;2.50;;;2.40;;
16516;SDS011;8371;52.272;9.746;2022-12-18T03:40:17;2.80;;;2.63;;
16516;SDS011;8371;52.272;9.746;2022-12-18T03:42:47;2.50;;;2.40;;
16516;SDS011;8371;52.272;9.746;2022-12-18T03:45:19;2.70;;;2.60;;
16516;SDS011;8371;52.272;9.746;2022-12-18T03:48:05;3.13;;;2.93;;
16516;SDS011;8371;52.272;9.746;2022-12-18T03:50:38;2.67;;;2.57;;
16516;SDS011;8371;52.272;9.746;2022-12-18T03:53:14;2.43;;;2.33;;
16516;SDS011;8371;52.272;9.746;2022-12-18T03:55:51;2.47;;;2.37;;
16516;SDS011;8371;52.272;9.746;2022-12-18T03:58:17;2.30;;;2.20;;
16516;SDS011;8371;52.272;9.746;2022-12-18T04:00:45;3.27;;;3.17;;
16516;SDS011;8371;52.272;9.746;2022-12-18T04:03:15;2.43;;;2.33;;
16516;SDS011;8371;52.272;9.746;2022-12-18T04:05:43;2.17;;;2.07;;
16516;SDS011;8371;52.272;9.746;2022-12-18T04:08:11;2.87;;;2.77;;
16516;SDS011;8371;52.272;9.746;2022-12-18T04:10:37;2.87;;;2.77;;
16516;SDS011;8371;52.272;9.746;2022-12-18T04:13:03;2.60;;;2.50;;
16516;SDS011;8371;52.272;9.746;2022-12-18T04:15:29;2.50;;;2.40;;
16516;SDS011;8371;52.272;9.746;2022-12-18T04:17:54;2.67;;;2.57;;
16516;SDS011;8371;52.272;9.746;2022-12-18T04:20:20;3.17;;;2.33;;
16516;SDS011;8371;52.272;9.746;2022-12-18T04:22:46;2.80;;;2.70;;
16516;SDS011;8371;52.272;9.746;2022-12-18T04:25:12;2.40;;;2.30;;
16516;SDS011;8371;52.272;9.746;2022-12-18T04:27:38;2.67;;;2.57;;
16516;SDS011;8371;52.272;9.746;2022-12-18T04:30:04;2.30;;;2.20;;
16516;SDS011;8371;52.272;9.746;2022-12-18T04:32:32;2.50;;;2.30;;
16516;SDS011;8371;52.272;9.746;2022-12-18T04:34:59;2.80;;;2.60;;
16516;SDS011;8371;52.272;9.746;2022-12-18T04:37:24;2.23;;;2.13;;
16516;SDS011;8371;52.272;9.746;2022-12-18T04:39:50;2.87;;;2.77;;
16516;SDS011;8371;52.272;9.746;2022-12-18T04:42:16;2.23;;;2.13;;
16516;SDS011;8371;52.272;9.746;2022-12-18T04:44:41;2.63;;;2.53;;
16516;SDS011;8371;52.272;9.746;2022-12-18T04:47:07;2.60;;;2.50;;
16516;SDS011;8371;52.272;9.746;2022-12-18T04:49:36;2.53;;;2.43;;
16516;SDS011;8371;52.272;9.746;2022-12-18T04:52:01;2.43;;;2.33;;
16516;SDS011;8371;52.272;9.746;2022-12-18T04:54:27;2.30;;;2.20;;
16516;SDS011;8371;52.272;9.746;2022-12-18T04:56:53;2.90;;;2.70;;
16516;SDS011;8371;52.272;9.746;2022-12-18T04:59:18;2.43;;;2.33;;
16516;SDS011;8371;52.272;9.746;2022-12-18T05:01:44;2.53;;;2.43;;
16516;SDS011;8371;52.272;9.746;2022-12-18T05:04:11;2.47;;;2.37;;
16516;SDS011;8371;52.272;9.746;2022-12-18T05:06:36;2.70;;;2.60;;
16516;SDS011;8371;52.272;9.746;2022-12-18T05:09:02;2.40;;;2.30;;
16516;SDS011;8371;52.272;9.746;2022-12-18T05:11:28;2.93;;;2.83;;
16516;SDS011;8371;52.272;9.746;2022-12-18T05:13:54;2.33;;;2.23;;
16516;SDS011;8371;52.272;9.746;2022-12-18T05:16:21;2.33;;;2.23;;
16516;SDS011;8371;52.272;9.746;2022-12-18T05:18:46;2.87;;;2.73;;
16516;SDS011;8371;52.272;9.746;2022-12-18T05:21:13;2.90;;;2.80;;
16516;SDS011;8371;52.272;9.746;2022-12-18T05:23:38;3.00;;;2.90;;
16516;SDS011;8371;52.272;9.746;2022-12-18T05:26:05;2.77;;;2.67;;
16516;SDS011;8371;52.272;9.746;2022-12-18T05:28:32;3.37;;;3.17;;
16516;SDS011;8371;52.272;9.746;2022-12-18T05:30:59;3.00;;;2.90;;
16516;SDS011;8371;52.272;9.746;2022-12-18T05:33:33;2.80;;;2.70;;
16516;SDS011;8371;52.272;9.746;2022-12-18T05:35:58;2.73;;;2.63;;
16516;SDS011;8371;52.272;9.746;2022-12-18T05:38:25;2.90;;;2.80;;
16516;SDS011;8371;52.272;9.746;2022-12-18T05:40:52;2.57;;;2.47;;
16516;SDS011;8371;52.272;9.746;2022-12-18T05:43:18;3.10;;;2.90;;
16516;SDS011;8371;52.272;9.746;2022-12-18T05:45:45;2.77;;;2.67;;
16516;SDS011;8371;52.272;9.746;2022-12-18T05:48:11;2.53;;;2.43;;
16516;SDS011;8371;52.272;9.746;2022-12-18T05:50:37;2.57;;;2.47;;
16516;SDS011;8371;52.272;9.746;2022-12-18T05:53:04;2.43;;;2.33;;
16516;SDS011;8371;52.272;9.746;2022-12-18T05:55:34;2.37;;;2.27;;
16516;SDS011;8371;52.272;9.746;2022-12-18T05:58:01;2.70;;;2.60;;
16516;SDS011;8371;52.272;9.746;2022-12-18T06:00:28;3.13;;;3.00;;
16516;SDS011;8371;52.272;9.746;2022-12-18T06:02:54;2.70;;;2.60;;
16516;SDS011;8371;52.272;9.746;2022-12-18T06:05:19;2.37;;;2.27;;
16516;SDS011;8371;52.272;9.746;2022-12-18T06:07:45;2.50;;;2.40;;
16516;SDS011;8371;52.272;9.746;2022-12-18T06:10:10;2.40;;;2.30;;
16516;SDS011;8371;52.272;9.746;2022-12-18T06:12:37;2.23;;;2.13;;
16516;SDS011;8371;52.272;9.746;2022-12-18T06:15:03;2.53;;;2.43;;
16516;SDS011;8371;52.272;9.746;2022-12-18T06:17:32;2.17;;;2.07;;
16516;SDS011;8371;52.272;9.746;2022-12-18T06:19:59;2.90;;;2.70;;
16516;SDS011;8371;52.272;9.746;2022-12-18T06:22:24;2.50;;;2.40;;
16516;SDS011;8371;52.272;9.746;2022-12-18T06:24:51;2.80;;;2.60;;
16516;SDS011;8371;52.272;9.746;2022-12-18T06:27:17;2.63;;;2.53;;
16516;SDS011;8371;52.272;9.746;2022-12-18T06:29:42;2.93;;;2.83;;
16516;SDS011;8371;52.272;9.746;2022-12-18T06:32:08;2.90;;;2.73;;
16516;SDS011;8371;52.272;9.746;2022-12-18T06:34:34;2.30;;;2.20;;
16516;SDS011;8371;52.272;9.746;2022-12-18T06:37:01;2.20;;;2.10;;
16516;SDS011;8371;52.272;9.746;2022-12-18T06:39:27;2.90;;;2.80;;
16516;SDS011;8371;52.272;9.746;2022-12-18T06:41:53;8.30;;;3.27;;
16516;SDS011;8371;52.272;9.746;2022-12-18T06:44:19;2.23;;;2.13;;
16516;SDS011;8371;52.272;9.746;2022-12-18T06:46:45;2.30;;;2.20;;
16516;SDS011;8371;52.272;9.746;2022-12-18T06:49:10;3.07;;;2.97;;
16516;SDS011;8371;52.272;9.746;2022-12-18T06:51:37;3.00;;;2.90;;
16516;SDS011;8371;52.272;9.746;2022-12-18T06:54:02;2.70;;;2.60;;
16516;SDS011;8371;52.272;9.746;2022-12-18T06:56:29;2.40;;;2.30;;
16516;SDS011;8371;52.272;9.746;2022-12-18T06:58:54;2.50;;;2.40;;
16516;SDS011;8371;52.272;9.746;2022-12-18T07:01:20;2.67;;;2.57;;
16516;SDS011;8371;52.272;9.746;2022-12-18T07:03:47;2.23;;;2.13;;
16516;SDS011;8371;52.272;9.746;2022-12-18T07:06:19;2.90;;;2.80;;
16516;SDS011;8371;52.272;9.746;2022-12-18T07:08:46;2.77;;;2.57;;
16516;SDS011;8371;52.272;9.746;2022-12-18T07:11:12;2.27;;;2.17;;
16516;SDS011;8371;52.272;9.746;2022-12-18T07:13:38;2.70;;;2.50;;
16516;SDS011;8371;52.272;9.746;2022-12-18T07:16:05;2.43;;;2.33;;
16516;SDS011;8371;52.272;9.746;2022-12-18T07:18:35;2.23;;;2.13;;
16516;SDS011;8371;52.272;9.746;2022-12-18T07:21:05;2.87;;;2.77;;
16516;SDS011;8371;52.272;9.746;2022-12-18T07:23:32;2.70;;;2.57;;
16516;SDS011;8371;52.272;9.746;2022-12-18T07:26:03;2.47;;;2.37;;
16516;SDS011;8371;52.272;9.746;2022-12-18T07:28:31;2.80;;;2.70;;
16516;SDS011;8371;52.272;9.746;2022-12-18T07:30:57;2.40;;;2.30;;
16516;SDS011;8371;52.272;9.746;2022-12-18T07:33:24;2.60;;;2.50;;
16516;SDS011;8371;52.272;9.746;2022-12-18T07:35:50;2.73;;;2.53;;
16516;SDS011;8371;52.272;9.746;2022-12-18T07:38:16;2.50;;;2.33;;
16516;SDS011;8371;52.272;9.746;2022-12-18T07:40:42;2.30;;;2.20;;
16516;SDS011;8371;52.272;9.746;2022-12-18T07:43:07;2.77;;;2.57;;
16516;SDS011;8371;52.272;9.746;2022-12-18T07:45:33;2.77;;;2.67;;
16516;SDS011;8371;52.272;9.746;2022-12-18T07:47:59;2.83;;;2.73;;
16516;SDS011;8371;52.272;9.746;2022-12-18T07:50:24;2.37;;;2.27;;
16516;SDS011;8371;52.272;9.746;2022-12-18T07:52:50;3.20;;;3.10;;
16516;SDS011;8371;52.272;9.746;2022-12-18T07:55:16;2.40;;;2.30;;
16516;SDS011;8371;52.272;9.746;2022-12-18T07:57:42;2.73;;;2.53;;
16516;SDS011;8371;52.272;9.746;2022-12-18T08:00:08;2.90;;;2.70;;
16516;SDS011;8371;52.272;9.746;2022-12-18T08:02:34;2.70;;;2.60;;
16516;SDS011;8371;52.272;9.746;2022-12-18T08:05:00;2.67;;;2.57;;
16516;SDS011;8371;52.272;9.746;2022-12-18T08:07:26;2.60;;;2.50;;
16516;SDS011;8371;52.272;9.746;2022-12-18T08:09:52;2.83;;;2.73;;
16516;SDS011;8371;52.272;9.746;2022-12-18T08:12:17;3.10;;;3.00;;
16516;SDS011;8371;52.272;9.746;2022-12-18T08:14:43;2.53;;;2.43;;
16516;SDS011;8371;52.272;9.746;2022-12-18T08:17:09;2.30;;;2.20;;
16516;SDS011;8371;52.272;9.746;2022-12-18T08:19:34;2.43;;;2.33;;
16516;SDS011;8371;52.272;9.746;2022-12-18T08:22:00;2.30;;;2.20;;
16516;SDS011;8371;52.272;9.746;2022-12-18T08:24:26;2.30;;;2.20;;
16516;SDS011;8371;52.272;9.746;2022-12-18T08:26:51;2.80;;;2.70;;
16516;SDS011;8371;52.272;9.746;2022-12-18T08:29:17;3.00;;;2.90;;
16516;SDS011;8371;52.272;9.746;2022-12-18T08:31:43;2.40;;;2.30;;
16516;SDS011;8371;52.272;9.746;2022-12-18T08:34:08;2.73;;;2.53;;
16516;SDS011;8371;52.272;9.746;2022-12-18T08:36:34;1.93;;;1.83;;
16516;SDS011;8371;52.272;9.746;2022-12-18T08:39:00;2.63;;;2.53;;
16516;SDS011;8371;52.272;9.746;2022-12-18T08:41:26;3.03;;;2.93;;
16516;SDS011;8371;52.272;9.746;2022-12-18T08:43:52;2.67;;;2.57;;
16516;SDS011;8371;52.272;9.746;2022-12-18T08:46:37;2.10;;;2.00;;
16516;SDS011;8371;52.272;9.746;2022-12-18T08:49:05;2.40;;;2.30;;
16516;SDS011;8371;52.272;9.746;2022-12-18T08:51:33;2.50;;;2.40;;
16516;SDS011;8371;52.272;9.746;2022-12-18T08:54:01;3.00;;;2.90;;
16516;SDS011;8371;52.272;9.746;2022-12-18T08:56:27;3.03;;;2.83;;
16516;SDS011;8371;52.272;9.746;2022-12-18T08:58:53;2.47;;;2.37;;
16516;SDS011;8371;52.272;9.746;2022-12-18T09:01:20;2.70;;;2.50;;
16516;SDS011;8371;52.272;9.746;2022-12-18T09:03:46;2.30;;;2.20;;
16516;SDS011;8371;52.272;9.746;2022-12-18T09:06:14;2.20;;;2.10;;
16516;SDS011;8371;52.272;9.746;2022-12-18T09:08:42;2.57;;;2.47;;
16516;SDS011;8371;52.272;9.746;2022-12-18T09:11:15;2.30;;;2.20;;
16516;SDS011;8371;52.272;9.746;2022-12-18T09:13:48;2.47;;;2.37;;
16516;SDS011;8371;52.272;9.746;2022-12-18T09:16:15;2.47;;;2.37;;
16516;SDS011;8371;52.272;9.746;2022-12-18T09:18:41;3.37;;;3.13;;
16516;SDS011;8371;52.272;9.746;2022-12-18T09:21:08;2.00;;;1.90;;
16516;SDS011;8371;52.272;9.746;2022-12-18T09:23:34;2.60;;;2.50;;
16516;SDS011;8371;52.272;9.746;2022-12-18T09:26:00;2.87;;;2.77;;
16516;SDS011;8371;52.272;9.746;2022-12-18T09:28:26;2.40;;;2.30;;
16516;SDS011;8371;52.272;9.746;2022-12-18T09:30:52;2.40;;;2.30;;
16516;SDS011;8371;52.272;9.746;2022-12-18T09:33:18;2.63;;;2.53;;
16516;SDS011;8371;52.272;9.746;2022-12-18T09:35:44;2.97;;;2.87;;
16516;SDS011;8371;52.272;9.746;2022-12-18T09:38:11;3.03;;;2.93;;
16516;SDS011;8371;52.272;9.746;2022-12-18T09:40:41;2.63;;;2.53;;
16516;SDS011;8371;52.272;9.746;2022-12-18T09:43:09;2.57;;;2.47;;
16516;SDS011;8371;52.272;9.746;2022-12-18T09:45:55;2.70;;;2.60;;
16516;SDS011;8371;52.272;9.746;2022-12-18T09:48:21;2.50;;;2.40;;
16516;SDS011;8371;52.272;9.746;2022-12-18T09:50:51;2.63;;;2.53;;
16516;SDS011;8371;52.272;9.746;2022-12-18T09:53:22;3.00;;;2.90;;
16516;SDS011;8371;52.272;9.746;2022-12-18T09:55:50;2.73;;;2.63;;
16516;SDS011;8371;52.272;9.746;2022-12-18T09:58:26;2.67;;;2.57;;
16516;SDS011;8371;52.272;9.746;2022-12-18T10:00:54;3.40;;;3.10;;
16516;SDS011;8371;52.272;9.746;2022-12-18T10:03:20;2.60;;;2.50;;
16516;SDS011;8371;52.272;9.746;2022-12-18T10:08:39;2.30;;;2.20;;
16516;SDS011;8371;52.272;9.746;2022-12-18T10:11:30;2.77;;;2.67;;
16516;SDS011;8371;52.272;9.746;2022-12-18T10:14:15;2.43;;;2.33;;
16516;SDS011;8371;52.272;9.746;2022-12-18T10:20:17;2.63;;;2.43;;
16516;SDS011;8371;52.272;9.746;2022-12-18T10:23:33;2.57;;;2.47;;
16516;SDS011;8371;52.272;9.746;2022-12-18T10:25:50;2.60;;;2.50;;
16516;SDS011;8371;52.272;9.746;2022-12-18T10:28:12;2.10;;;2.00;;
16516;SDS011;8371;52.272;9.746;2022-12-18T10:30:40;2.70;;;2.43;;
16516;SDS011;8371;52.272;9.746;2022-12-18T10:33:10;2.67;;;2.57;;
16516;SDS011;8371;52.272;9.746;2022-12-18T10:35:40;2.30;;;2.10;;
16516;SDS011;8371;52.272;9.746;2022-12-18T10:38:20;2.70;;;2.60;;
16516;SDS011;8371;52.272;9.746;2022-12-18T10:40:49;2.50;;;2.40;;
16516;SDS011;8371;52.272;9.746;2022-12-18T10:43:21;2.50;;;2.40;;
16516;SDS011;8371;52.272;9.746;2022-12-18T10:46:00;2.70;;;2.60;;
16516;SDS011;8371;52.272;9.746;2022-12-18T10:48:28;2.67;;;2.57;;
16516;SDS011;8371;52.272;9.746;2022-12-18T10:50:55;2.40;;;2.30;;
16516;SDS011;8371;52.272;9.746;2022-12-18T10:53:29;2.33;;;2.23;;
16516;SDS011;8371;52.272;9.746;2022-12-18T10:55:58;2.30;;;2.20;;
16516;SDS011;8371;52.272;9.746;2022-12-18T10:58:29;2.20;;;2.10;;
16516;SDS011;8371;52.272;9.746;2022-12-18T11:01:05;2.50;;;2.40;;
16516;SDS011;8371;52.272;9.746;2022-12-18T11:06:22;2.07;;;1.97;;
16516;SDS011;8371;52.272;9.746;2022-12-18T11:09:02;2.40;;;2.30;;
16516;SDS011;8371;52.272;9.746;2022-12-18T11:11:30;2.23;;;2.13;;
16516;SDS011;8371;52.272;9.746;2022-12-18T11:16:30;2.87;;;2.60;;
16516;SDS011;8371;52.272;9.746;2022-12-18T11:21:47;2.77;;;2.67;;
16516;SDS011;8371;52.272;9.746;2022-12-18T11:24:20;2.57;;;2.47;;
16516;SDS011;8371;52.272;9.746;2022-12-18T11:26:58;2.30;;;2.20;;
16516;SDS011;8371;52.272;9.746;2022-12-18T11:29:31;2.60;;;2.50;;
16516;SDS011;8371;52.272;9.746;2022-12-18T11:34:45;2.30;;;2.20;;
16516;SDS011;8371;52.272;9.746;2022-12-18T11:37:13;2.50;;;2.40;;
16516;SDS011;8371;52.272;9.746;2022-12-18T11:39:49;2.47;;;2.37;;
16516;SDS011;8371;52.272;9.746;2022-12-18T11:42:34;2.87;;;2.77;;
16516;SDS011;8371;52.272;9.746;2022-12-18T11:48:04;3.03;;;2.93;;
16516;SDS011;8371;52.272;9.746;2022-12-18T11:50:38;2.73;;;2.63;;
16516;SDS011;8371;52.272;9.746;2022-12-18T11:53:08;2.47;;;2.37;;
16516;SDS011;8371;52.272;9.746;2022-12-18T11:55:43;2.33;;;2.23;;
16516;SDS011;8371;52.272;9.746;2022-12-18T11:58:24;2.50;;;2.37;;
16516;SDS011;8371;52.272;9.746;2022-12-18T12:00:59;2.43;;;2.33;;
16516;SDS011;8371;52.272;9.746;2022-12-18T12:09:07;1.73;;;1.73;;
16516;SDS011;8371;52.272;9.746;2022-12-18T12:14:27;2.23;;;2.13;;
16516;SDS011;8371;52.272;9.746;2022-12-18T12:17:01;1.80;;;1.80;;
16516;SDS011;8371;52.272;9.746;2022-12-18T12:19:43;1.60;;;1.50;;
16516;SDS011;8371;52.272;9.746;2022-12-18T12:22:15;1.70;;;1.60;;
16516;SDS011;8371;52.272;9.746;2022-12-18T12:27:36;1.10;;;1.10;;
16516;SDS011;8371;52.272;9.746;2022-12-18T12:30:06;1.30;;;1.30;;
16516;SDS011;8371;52.272;9.746;2022-12-18T12:35:40;1.37;;;1.37;;
16516;SDS011;8371;52.272;9.746;2022-12-18T12:38:13;1.20;;;1.20;;
16516;SDS011;8371;52.272;9.746;2022-12-18T12:40:42;1.30;;;1.30;;
16516;SDS011;8371;52.272;9.746;2022-12-18T12:45:53;1.07;;;1.07;;
16516;SDS011;8371;52.272;9.746;2022-12-18T12:48:41;1.30;;;1.30;;
16516;SDS011;8371;52.272;9.746;2022-12-18T12:51:28;1.20;;;1.20;;
16516;SDS011;8371;52.272;9.746;2022-12-18T12:53:56;1.40;;;1.30;;
16516;SDS011;8371;52.272;9.746;2022-12-18T12:56:24;1.33;;;1.33;;
16516;SDS011;8371;52.272;9.746;2022-12-18T13:07:03;1.53;;;1.53;;
16516;SDS011;8371;52.272;9.746;2022-12-18T13:09:31;1.97;;;1.87;;
16516;SDS011;8371;52.272;9.746;2022-12-18T13:12:04;2.17;;;2.07;;
16516;SDS011;8371;52.272;9.746;2022-12-18T13:15:05;2.50;;;2.40;;
16516;SDS011;8371;52.272;9.746;2022-12-18T13:17:28;2.33;;;2.23;;
16516;SDS011;8371;52.272;9.746;2022-12-18T13:20:03;2.33;;;2.23;;
16516;SDS011;8371;52.272;9.746;2022-12-18T13:22:39;2.33;;;2.23;;
16516;SDS011;8371;52.272;9.746;2022-12-18T13:25:26;2.87;;;2.77;;
16516;SDS011;8371;52.272;9.746;2022-12-18T13:27:59;3.23;;;3.07;;
16516;SDS011;8371;52.272;9.746;2022-12-18T13:33:34;3.10;;;3.00;;
16516;SDS011;8371;52.272;9.746;2022-12-18T13:41:01;3.77;;;3.57;;
16516;SDS011;8371;52.272;9.746;2022-12-18T13:46:17;5.67;;;5.37;;
16516;SDS011;8371;52.272;9.746;2022-12-18T13:49:05;6.83;;;6.10;;
16516;SDS011;8371;52.272;9.746;2022-12-18T13:51:39;5.57;;;5.33;;
16516;SDS011;8371;52.272;9.746;2022-12-18T13:54:13;5.07;;;4.80;;
16516;SDS011;8371;52.272;9.746;2022-12-18T13:56:46;5.97;;;5.57;;
16516;SDS011;8371;52.272;9.746;2022-12-18T14:06:58;5.07;;;4.73;;
16516;SDS011;8371;52.272;9.746;2022-12-18T14:09:30;5.07;;;4.87;;
16516;SDS011;8371;52.272;9.746;2022-12-18T14:11:58;4.63;;;4.33;;
16516;SDS011;8371;52.272;9.746;2022-12-18T14:14:44;4.30;;;4.10;;
16516;SDS011;8371;52.272;9.746;2022-12-18T14:17:12;5.07;;;4.87;;
16516;SDS011;8371;52.272;9.746;2022-12-18T14:19:46;5.00;;;4.70;;
16516;SDS011;8371;52.272;9.746;2022-12-18T14:22:16;4.93;;;4.73;;
16516;SDS011;8371;52.272;9.746;2022-12-18T14:24:44;4.73;;;4.53;;
16516;SDS011;8371;52.272;9.746;2022-12-18T14:27:20;4.87;;;4.57;;
16516;SDS011;8371;52.272;9.746;2022-12-18T14:29:49;5.33;;;5.03;;
16516;SDS011;8371;52.272;9.746;2022-12-18T14:32:19;6.57;;;6.17;;
16516;SDS011;8371;52.272;9.746;2022-12-18T14:37:22;11.57;;;10.47;;
16516;SDS011;8371;52.272;9.746;2022-12-18T14:39:53;9.23;;;8.43;;
16516;SDS011;8371;52.272;9.746;2022-12-18T14:42:21;9.20;;;8.30;;
16516;SDS011;8371;52.272;9.746;2022-12-18T14:44:47;7.20;;;6.70;;
16516;SDS011;8371;52.272;9.746;2022-12-18T14:47:14;7.87;;;7.27;;
16516;SDS011;8371;52.272;9.746;2022-12-18T14:49:41;8.30;;;7.60;;
16516;SDS011;8371;52.272;9.746;2022-12-18T14:52:20;10.23;;;9.33;;
16516;SDS011;8371;52.272;9.746;2022-12-18T14:54:49;8.87;;;8.37;;
16516;SDS011;8371;52.272;9.746;2022-12-18T14:59:50;8.03;;;7.50;;
16516;SDS011;8371;52.272;9.746;2022-12-18T15:02:23;8.03;;;7.40;;
16516;SDS011;8371;52.272;9.746;2022-12-18T15:05:00;6.97;;;6.57;;
16516;SDS011;8371;52.272;9.746;2022-12-18T15:07:40;6.77;;;6.30;;
16516;SDS011;8371;52.272;9.746;2022-12-18T15:10:12;6.93;;;6.57;;
16516;SDS011;8371;52.272;9.746;2022-12-18T15:12:44;7.20;;;6.70;;
16516;SDS011;8371;52.272;9.746;2022-12-18T15:18:05;7.40;;;6.90;;
16516;SDS011;8371;52.272;9.746;2022-12-18T15:20:41;7.20;;;6.70;;
16516;SDS011;8371;52.272;9.746;2022-12-18T15:28:35;6.67;;;6.17;;
16516;SDS011;8371;52.272;9.746;2022-12-18T15:33:36;7.30;;;6.90;;
16516;SDS011;8371;52.272;9.746;2022-12-18T15:36:00;7.43;;;6.93;;
16516;SDS011;8371;52.272;9.746;2022-12-18T15:38:28;6.70;;;6.20;;
16516;SDS011;8371;52.272;9.746;2022-12-18T15:40:54;6.30;;;5.97;;
16516;SDS011;8371;52.272;9.746;2022-12-18T15:43:21;7.33;;;6.70;;
16516;SDS011;8371;52.272;9.746;2022-12-18T15:46:04;7.47;;;6.60;;
16516;SDS011;8371;52.272;9.746;2022-12-18T15:48:35;6.33;;;5.83;;
16516;SDS011;8371;52.272;9.746;2022-12-18T15:51:08;5.90;;;5.57;;
16516;SDS011;8371;52.272;9.746;2022-12-18T15:53:35;6.63;;;6.23;;
16516;SDS011;8371;52.272;9.746;2022-12-18T15:56:01;6.43;;;6.13;;
16516;SDS011;8371;52.272;9.746;2022-12-18T15:58:45;6.47;;;6.07;;
16516;SDS011;8371;52.272;9.746;2022-12-18T16:01:11;6.53;;;6.23;;
16516;SDS011;8371;52.272;9.746;2022-12-18T16:03:37;6.53;;;6.07;;
16516;SDS011;8371;52.272;9.746;2022-12-18T16:06:02;6.83;;;6.30;;
16516;SDS011;8371;52.272;9.746;2022-12-18T16:08:29;5.73;;;5.43;;
16516;SDS011;8371;52.272;9.746;2022-12-18T16:10:56;5.63;;;5.33;;
16516;SDS011;8371;52.272;9.746;2022-12-18T16:13:22;5.00;;;4.70;;
16516;SDS011;8371;52.272;9.746;2022-12-18T16:15:48;5.60;;;5.30;;
16516;SDS011;8371;52.272;9.746;2022-12-18T16:18:14;5.77;;;5.47;;
16516;SDS011;8371;52.272;9.746;2022-12-18T16:20:40;5.50;;;5.20;;
16516;SDS011;8371;52.272;9.746;2022-12-18T16:23:06;5.50;;;5.30;;
16516;SDS011;8371;52.272;9.746;2022-12-18T16:25:32;6.23;;;5.67;;
16516;SDS011;8371;52.272;9.746;2022-12-18T16:27:58;5.97;;;5.67;;
16516;SDS011;8371;52.272;9.746;2022-12-18T16:30:25;6.33;;;6.00;;
16516;SDS011;8371;52.272;9.746;2022-12-18T16:32:53;6.50;;;6.10;;
16516;SDS011;8371;52.272;9.746;2022-12-18T16:35:20;6.33;;;5.93;;
16516;SDS011;8371;52.272;9.746;2022-12-18T16:37:46;8.07;;;7.47;;
16516;SDS011;8371;52.272;9.746;2022-12-18T16:40:12;9.93;;;9.00;;
16516;SDS011;8371;52.272;9.746;2022-12-18T16:42:40;8.43;;;7.73;;
16516;SDS011;8371;52.272;9.746;2022-12-18T16:45:08;8.97;;;8.07;;
16516;SDS011;8371;52.272;9.746;2022-12-18T16:47:35;7.10;;;6.70;;
16516;SDS011;8371;52.272;9.746;2022-12-18T16:50:01;7.70;;;7.10;;
16516;SDS011;8371;52.272;9.746;2022-12-18T16:52:28;7.57;;;6.97;;
16516;SDS011;8371;52.272;9.746;2022-12-18T16:54:54;7.13;;;6.63;;